createdAt,value
2023-03-06T00:01:06.685Z,8.40
2023-03-06T00:03:08.702Z,9.77
2023-03-06T00:05:10.803Z,9.88
2023-03-06T00:07:12.966Z,12.27
2023-03-06T00:09:15.031Z,11.90
2023-03-06T00:11:17.560Z,10.77
2023-03-06T00:13:21.938Z,10.60
2023-03-06T00:15:25.214Z,12.82
2023-03-06T00:17:28.823Z,14.50
2023-03-06T00:19:30.898Z,11.63
2023-03-06T00:21:32.894Z,12.68
2023-03-06T00:23:35.115Z,9.85
2023-03-06T00:25:38.960Z,11.68
2023-03-06T00:27:41.549Z,16.10
2023-03-06T00:29:43.627Z,9.82
2023-03-06T00:31:48.033Z,9.88
2023-03-06T00:33:50.118Z,9.75
2023-03-06T00:35:52.228Z,15.93
2023-03-06T00:37:54.224Z,12.63
2023-03-06T00:39:56.336Z,9.68
2023-03-06T00:41:58.444Z,13.20
2023-03-06T00:44:00.523Z,12.77
2023-03-06T00:46:02.836Z,10.13
2023-03-06T00:48:05.595Z,10.40
2023-03-06T00:50:08.826Z,9.45
2023-03-06T00:52:11.413Z,14.73
2023-03-06T00:54:13.407Z,11.98
2023-03-06T00:56:15.541Z,10.90
2023-03-06T00:58:19.100Z,9.90
2023-03-06T01:00:21.384Z,12.30
2023-03-06T01:02:23.522Z,11.02
2023-03-06T01:04:25.860Z,11.05
2023-03-06T01:06:27.891Z,11.50
2023-03-06T01:08:29.935Z,10.30
2023-03-06T01:10:31.943Z,13.70
2023-03-06T01:12:33.908Z,10.55
2023-03-06T01:14:35.962Z,11.65
2023-03-06T01:16:38.051Z,12.93
2023-03-06T01:18:40.166Z,13.40
2023-03-06T01:20:42.321Z,11.27
2023-03-06T01:22:45.150Z,11.38
2023-03-06T01:24:47.152Z,10.45
2023-03-06T01:26:49.156Z,10.02
2023-03-06T01:28:51.198Z,12.85
2023-03-06T01:30:53.443Z,10.68
2023-03-06T01:32:55.407Z,10.13
2023-03-06T01:34:57.622Z,11.95
2023-03-06T01:36:59.678Z,11.43
2023-03-06T01:39:01.687Z,10.73
2023-03-06T01:41:05.864Z,13.15
2023-03-06T01:43:11.619Z,11.45
2023-03-06T01:45:14.300Z,9.65
2023-03-06T01:47:16.235Z,12.23
2023-03-06T01:49:24.813Z,14.02
2023-03-06T01:51:32.464Z,10.80
2023-03-06T01:53:34.444Z,11.82
2023-03-06T01:55:37.179Z,9.73
2023-03-06T01:57:44.365Z,13.18
2023-03-06T01:59:53.179Z,10.82
2023-03-06T02:01:56.430Z,12.07
2023-03-06T02:04:00.970Z,13.98
2023-03-06T02:06:03.003Z,11.60
2023-03-06T02:08:06.956Z,15.18
2023-03-06T02:10:10.392Z,12.55
2023-03-06T02:12:16.706Z,14.68
2023-03-06T02:14:18.869Z,12.18
2023-03-06T02:16:27.991Z,13.35
2023-03-06T02:18:33.049Z,13.27
2023-03-06T02:20:43.852Z,15.48
2023-03-06T02:24:56.962Z,21.90
2023-03-06T02:29:02.174Z,16.33
2023-03-06T02:31:04.293Z,15.75
2023-03-06T02:33:06.765Z,14.07
2023-03-06T02:35:20.777Z,14.60
2023-03-06T02:37:25.281Z,14.52
2023-03-06T02:39:29.933Z,13.23
2023-03-06T02:41:32.091Z,17.33
2023-03-06T02:43:40.934Z,14.35
2023-03-06T02:45:46.470Z,13.20
2023-03-06T02:47:48.580Z,12.27
2023-03-06T02:49:50.575Z,16.90
2023-03-06T02:51:52.710Z,11.60
2023-03-06T02:53:54.771Z,13.88
2023-03-06T02:55:56.778Z,17.10
2023-03-06T02:57:58.900Z,14.40
2023-03-06T03:00:00.935Z,15.18
2023-03-06T03:02:03.031Z,15.18
2023-03-06T03:04:05.215Z,16.58
2023-03-06T03:06:08.046Z,12.52
2023-03-06T03:08:10.282Z,16.67
2023-03-06T03:10:13.048Z,10.88
2023-03-06T03:12:15.023Z,13.90
2023-03-06T03:14:16.949Z,14.63
2023-03-06T03:16:19.041Z,17.42
2023-03-06T03:18:21.030Z,14.90
2023-03-06T03:20:23.698Z,14.32
2023-03-06T03:22:25.837Z,14.30
2023-03-06T03:24:27.920Z,13.02
2023-03-06T03:26:29.898Z,12.75
2023-03-06T03:28:31.893Z,11.70
2023-03-06T03:30:33.872Z,13.40
2023-03-06T03:32:35.870Z,12.57
2023-03-06T03:34:38.047Z,13.63
2023-03-06T03:36:40.477Z,10.32
2023-03-06T03:38:42.470Z,13.00
2023-03-06T03:40:44.494Z,10.30
2023-03-06T03:42:46.482Z,14.75
2023-03-06T03:44:48.455Z,13.82
2023-03-06T03:46:51.227Z,13.15
2023-03-06T03:48:53.346Z,15.73
2023-03-06T03:50:55.458Z,17.08
2023-03-06T03:52:57.530Z,11.23
2023-03-06T03:54:59.722Z,13.23
2023-03-06T03:57:01.983Z,15.23
2023-03-06T03:59:03.957Z,14.38
2023-03-06T04:01:06.755Z,12.77
2023-03-06T04:03:08.723Z,13.88
2023-03-06T04:05:12.753Z,16.38
2023-03-06T04:07:15.408Z,15.82
2023-03-06T04:09:17.443Z,14.60
2023-03-06T04:11:19.592Z,15.00
2023-03-06T04:13:22.406Z,10.70
2023-03-06T04:15:24.438Z,16.52
2023-03-06T04:17:27.307Z,15.60
2023-03-06T04:19:29.284Z,13.00
2023-03-06T04:21:31.400Z,12.85
2023-03-06T04:23:33.597Z,11.98
2023-03-06T04:25:35.881Z,13.48
2023-03-06T04:27:37.924Z,13.07
2023-03-06T04:29:39.867Z,13.23
2023-03-06T04:31:41.897Z,12.18
2023-03-06T04:33:44.054Z,11.43
2023-03-06T04:35:46.084Z,14.38
2023-03-06T04:37:48.157Z,15.60
2023-03-06T04:39:50.362Z,12.77
2023-03-06T04:41:55.054Z,14.00
2023-03-06T04:43:57.664Z,11.55
2023-03-06T04:46:02.081Z,12.10
2023-03-06T04:48:06.079Z,14.75
2023-03-06T04:50:10.488Z,13.50
2023-03-06T04:52:12.701Z,12.10
2023-03-06T04:54:17.955Z,13.10
2023-03-06T04:56:21.523Z,11.77
2023-03-06T04:58:24.786Z,10.00
2023-03-06T05:00:32.518Z,13.07
2023-03-06T05:02:35.111Z,11.93
2023-03-06T05:04:39.954Z,15.60
2023-03-06T05:06:43.501Z,14.15
2023-03-06T05:08:48.919Z,16.13
2023-03-06T05:10:57.009Z,14.57
2023-03-06T05:13:00.209Z,15.82
2023-03-06T05:15:03.533Z,12.73
2023-03-06T05:17:07.059Z,11.20
2023-03-06T05:19:11.079Z,12.77
2023-03-06T05:21:13.594Z,13.07
2023-03-06T05:23:18.334Z,11.27
2023-03-06T05:25:20.884Z,11.60
2023-03-06T05:27:23.244Z,11.05
2023-03-06T05:29:26.823Z,14.05
2023-03-06T05:31:30.457Z,12.25
2023-03-06T05:33:34.941Z,11.55
2023-03-06T05:35:37.399Z,10.23
2023-03-06T05:37:40.181Z,12.02
2023-03-06T05:39:43.218Z,12.35
2023-03-06T05:41:47.821Z,13.45
2023-03-06T05:43:50.729Z,10.32
2023-03-06T05:46:02.515Z,10.25
2023-03-06T05:48:06.534Z,11.60
2023-03-06T05:50:11.103Z,11.70
2023-03-06T05:52:14.365Z,12.05
2023-03-06T05:54:17.679Z,9.15
2023-03-06T05:56:22.964Z,9.10
2023-03-06T05:58:25.207Z,14.30
2023-03-06T06:00:28.721Z,15.63
2023-03-06T06:02:32.879Z,10.73
2023-03-06T06:04:36.827Z,10.60
2023-03-06T06:06:40.127Z,13.00
2023-03-06T06:08:43.951Z,12.50
2023-03-06T06:10:47.374Z,9.80
2023-03-06T06:12:50.772Z,11.30
2023-03-06T06:14:53.752Z,10.38
2023-03-06T06:16:57.032Z,10.05
2023-03-06T06:19:01.867Z,9.77
2023-03-06T06:21:07.112Z,10.93
2023-03-06T06:23:12.690Z,9.82
2023-03-06T06:25:17.202Z,9.52
2023-03-06T06:27:21.685Z,10.32
2023-03-06T06:29:26.966Z,9.80
2023-03-06T06:31:31.036Z,12.45
2023-03-06T06:33:33.491Z,11.15
2023-03-06T06:35:38.290Z,13.15
2023-03-06T06:37:42.371Z,9.43
2023-03-06T06:39:47.402Z,8.25
2023-03-06T06:42:05.555Z,10.18
2023-03-06T06:44:15.757Z,10.85
2023-03-06T06:46:49.965Z,9.60
2023-03-06T06:48:41.750Z,9.10
2023-03-06T06:50:55.377Z,10.50
2023-03-06T06:52:59.030Z,10.80
2023-03-06T06:55:01.556Z,13.57
2023-03-06T06:57:05.155Z,10.82
2023-03-06T06:59:16.553Z,10.88
2023-03-06T07:01:28.412Z,11.80
2023-03-06T07:03:31.006Z,13.70
2023-03-06T07:05:37.931Z,10.05
2023-03-06T07:07:53.280Z,9.25
2023-03-06T07:09:55.989Z,9.10
2023-03-06T07:12:15.983Z,11.77
2023-03-06T07:14:32.271Z,11.90
2023-03-06T07:16:41.911Z,10.70
2023-03-06T07:18:50.728Z,12.88
2023-03-06T07:21:01.269Z,10.20
2023-03-06T07:25:13.908Z,10.25
2023-03-06T07:27:37.912Z,13.00
2023-03-06T07:29:45.251Z,10.57
2023-03-06T07:31:48.857Z,12.00
2023-03-06T07:33:59.044Z,10.68
2023-03-06T07:36:07.084Z,12.85
2023-03-06T07:38:17.175Z,12.73
2023-03-06T07:40:27.305Z,10.43
2023-03-06T07:42:35.610Z,11.48
2023-03-06T07:44:42.173Z,15.00
2023-03-06T07:47:15.263Z,13.82
2023-03-06T07:49:19.415Z,14.23
2023-03-06T07:51:23.436Z,12.68
2023-03-06T07:53:31.970Z,10.30
2023-03-06T07:55:36.803Z,11.82
2023-03-06T07:57:43.364Z,12.88
2023-03-06T07:59:49.294Z,13.25
2023-03-06T08:01:56.477Z,13.20
2023-03-06T08:04:24.512Z,12.88
2023-03-06T08:06:44.138Z,13.10
2023-03-06T08:08:58.232Z,10.40
2023-03-06T08:11:19.753Z,11.70
2023-03-06T08:13:30.605Z,14.38
2023-03-06T08:15:56.899Z,10.25
2023-03-06T08:18:06.447Z,13.13
2023-03-06T08:20:10.638Z,9.85
2023-03-06T08:22:19.825Z,12.18
2023-03-06T08:24:40.574Z,12.57
2023-03-06T08:26:58.586Z,9.55
2023-03-06T08:29:09.776Z,15.43
2023-03-06T08:31:53.943Z,11.30
2023-03-06T08:34:00.008Z,10.60
2023-03-06T08:36:10.719Z,12.90
2023-03-06T08:38:26.957Z,10.07
2023-03-06T08:40:54.959Z,12.32
2023-03-06T08:46:07.454Z,10.27
2023-03-06T08:48:16.055Z,10.70
2023-03-06T08:50:21.247Z,10.40
2023-03-06T08:52:26.954Z,11.98
2023-03-06T08:54:38.162Z,13.02
2023-03-06T08:56:47.679Z,10.23
2023-03-06T08:59:00.471Z,12.20
2023-03-06T09:01:10.855Z,11.98
2023-03-06T09:03:18.480Z,12.60
2023-03-06T09:05:23.322Z,13.98
2023-03-06T09:07:30.772Z,12.88
2023-03-06T09:09:32.936Z,10.93
2023-03-06T09:11:44.159Z,17.85
2023-03-06T09:13:47.131Z,13.27
2023-03-06T09:15:52.296Z,10.90
2023-03-06T09:18:05.771Z,14.18
2023-03-06T09:20:10.830Z,10.48
2023-03-06T09:22:31.083Z,14.75
2023-03-06T09:24:35.173Z,13.18
2023-03-06T09:26:47.591Z,11.90
2023-03-06T09:28:53.734Z,11.73
2023-03-06T09:31:12.974Z,16.13
2023-03-06T09:33:15.000Z,13.68
2023-03-06T09:37:40.022Z,12.30
2023-03-06T09:40:01.395Z,12.10
2023-03-06T09:42:16.054Z,13.50
2023-03-06T09:44:34.568Z,18.02
2023-03-06T09:46:47.500Z,14.57
2023-03-06T09:49:09.122Z,12.18
2023-03-06T09:51:31.046Z,12.45
2023-03-06T09:53:46.705Z,11.27
2023-03-06T09:56:01.334Z,12.63
2023-03-06T09:58:14.495Z,13.88
2023-03-06T10:00:20.691Z,13.15
2023-03-06T10:02:26.617Z,11.52
2023-03-06T10:04:35.147Z,11.20
2023-03-06T10:06:46.440Z,13.82
2023-03-06T10:08:54.785Z,11.98
2023-03-06T10:11:02.659Z,11.15
2023-03-06T10:13:18.280Z,8.43
2023-03-06T10:15:27.381Z,11.15
2023-03-06T10:17:36.002Z,8.93
2023-03-06T10:19:40.264Z,11.05
2023-03-06T10:21:46.911Z,7.95
2023-03-06T10:23:55.018Z,11.10
2023-03-06T10:26:01.335Z,10.30
2023-03-06T10:28:13.206Z,7.95
2023-03-06T10:30:19.810Z,9.32
2023-03-06T10:32:32.158Z,6.65
2023-03-06T10:34:41.330Z,9.93
2023-03-06T10:36:43.426Z,10.63
2023-03-06T10:38:48.646Z,9.05
2023-03-06T10:40:55.293Z,12.27
2023-03-06T10:43:10.831Z,10.07
2023-03-06T10:45:15.766Z,10.75
2023-03-06T10:47:27.309Z,9.23
2023-03-06T10:49:31.506Z,11.65
2023-03-06T10:51:35.747Z,10.43
2023-03-06T10:53:50.893Z,9.43
2023-03-06T10:55:58.452Z,9.75
2023-03-06T10:58:06.900Z,9.02
2023-03-06T11:00:15.232Z,7.53
2023-03-06T11:02:25.234Z,11.23
2023-03-06T11:04:30.191Z,9.23
2023-03-06T11:06:35.813Z,10.05
2023-03-06T11:08:38.451Z,7.43
2023-03-06T11:10:40.669Z,7.97
2023-03-06T11:12:43.683Z,9.95
2023-03-06T11:14:45.971Z,8.93
2023-03-06T11:16:53.596Z,13.05
2023-03-06T11:19:00.804Z,8.32
2023-03-06T11:21:07.502Z,14.18
2023-03-06T11:23:14.016Z,9.50
2023-03-06T11:25:21.009Z,9.25
2023-03-06T11:27:34.850Z,9.00
2023-03-06T11:29:43.629Z,9.68
2023-03-06T11:31:55.110Z,11.63
2023-03-06T11:34:03.351Z,7.40
2023-03-06T11:36:11.768Z,12.00
2023-03-06T11:38:21.004Z,7.63
2023-03-06T11:40:27.684Z,10.25
2023-03-06T11:42:38.257Z,12.63
2023-03-06T11:44:47.207Z,8.48
2023-03-06T11:46:54.888Z,11.57
2023-03-06T11:49:03.220Z,12.25
2023-03-06T11:51:15.378Z,11.00
2023-03-06T11:53:23.051Z,7.60
2023-03-06T11:55:34.970Z,14.32
2023-03-06T11:57:48.385Z,7.22
2023-03-06T11:59:54.951Z,12.38
2023-03-06T12:02:03.339Z,7.85
2023-03-06T12:04:11.822Z,8.60
2023-03-06T12:06:20.170Z,6.00
2023-03-06T12:08:29.333Z,7.13
2023-03-06T12:10:38.967Z,8.25
2023-03-06T12:12:47.216Z,6.05
2023-03-06T12:14:52.776Z,6.68
2023-03-06T12:16:59.308Z,12.20
2023-03-06T12:19:22.467Z,7.22
2023-03-06T12:21:27.963Z,6.45
2023-03-06T12:23:36.327Z,7.43
2023-03-06T12:25:42.483Z,7.75
2023-03-06T12:27:51.620Z,4.47
2023-03-06T12:30:01.999Z,5.45
2023-03-06T12:32:10.443Z,5.43
2023-03-06T12:34:18.845Z,8.02
2023-03-06T12:36:31.544Z,4.47
2023-03-06T12:38:39.865Z,5.15
2023-03-06T12:40:53.504Z,7.05
2023-03-06T12:43:01.934Z,4.22
2023-03-06T12:45:05.965Z,6.10
2023-03-06T12:47:11.162Z,3.60
2023-03-06T12:49:31.439Z,5.60
2023-03-06T12:51:35.362Z,9.98
2023-03-06T12:53:40.385Z,5.80
2023-03-06T12:55:46.684Z,4.70
2023-03-06T12:57:49.692Z,7.20
2023-03-06T12:59:54.107Z,4.65
2023-03-06T13:02:05.177Z,4.35
2023-03-06T13:04:13.531Z,3.72
2023-03-06T13:06:21.876Z,3.42
2023-03-06T13:08:27.618Z,4.05
2023-03-06T13:10:33.935Z,4.13
2023-03-06T13:12:47.652Z,3.45
2023-03-06T13:14:56.754Z,3.53
2023-03-06T13:17:05.049Z,4.45
2023-03-06T13:19:12.865Z,5.68
2023-03-06T13:21:21.209Z,8.35
2023-03-06T13:23:29.493Z,3.03
2023-03-06T13:25:33.294Z,3.75
2023-03-06T13:27:41.675Z,4.40
2023-03-06T13:29:49.947Z,7.18
2023-03-06T13:31:53.867Z,8.50
2023-03-06T13:34:00.267Z,8.75
2023-03-06T13:36:08.505Z,3.75
2023-03-06T13:38:31.414Z,9.30
2023-03-06T13:40:35.668Z,4.90
2023-03-06T13:42:59.934Z,5.38
2023-03-06T13:45:08.200Z,6.05
2023-03-06T13:47:16.693Z,5.63
2023-03-06T13:49:24.384Z,3.10
2023-03-06T13:51:33.907Z,3.03
2023-03-06T13:53:40.999Z,3.80
2023-03-06T13:55:52.727Z,4.03
2023-03-06T13:58:01.277Z,4.15
2023-03-06T14:00:11.728Z,4.60
2023-03-06T14:02:20.108Z,5.10
2023-03-06T14:04:28.512Z,4.50
2023-03-06T14:06:35.088Z,4.90
2023-03-06T14:08:41.389Z,3.88
2023-03-06T14:10:45.483Z,7.32
2023-03-06T14:12:51.094Z,3.65
2023-03-06T14:14:58.202Z,3.30
2023-03-06T14:17:04.196Z,5.32
2023-03-06T14:19:16.386Z,4.05
2023-03-06T14:21:24.853Z,2.33
2023-03-06T14:23:28.822Z,4.20
2023-03-06T14:25:32.307Z,3.92
2023-03-06T14:27:39.873Z,6.20
2023-03-06T14:29:42.007Z,3.47
2023-03-06T14:31:44.205Z,4.28
2023-03-06T14:33:51.609Z,3.75
2023-03-06T14:36:03.080Z,5.68
2023-03-06T14:38:08.330Z,4.72
2023-03-06T14:40:13.170Z,2.97
2023-03-06T14:42:21.201Z,4.50
2023-03-06T14:44:26.689Z,4.43
2023-03-06T14:46:29.173Z,5.53
2023-03-06T14:48:38.804Z,7.70
2023-03-06T14:50:42.008Z,3.80
2023-03-06T14:52:44.549Z,4.93
2023-03-06T14:54:48.332Z,6.03
2023-03-06T14:56:54.520Z,3.38
2023-03-06T14:59:00.986Z,1.30
2023-03-06T15:01:07.217Z,1.38
2023-03-06T15:03:17.899Z,1.20
2023-03-06T15:05:27.048Z,2.92
2023-03-06T15:07:31.426Z,1.02
2023-03-06T15:09:36.276Z,3.80
2023-03-06T15:11:44.503Z,2.70
2023-03-06T15:14:01.310Z,1.25
2023-03-06T15:16:05.477Z,2.30
2023-03-06T15:18:13.850Z,7.90
2023-03-06T15:20:22.284Z,2.38
2023-03-06T15:22:26.542Z,4.68
2023-03-06T15:24:34.980Z,1.90
2023-03-06T15:26:38.058Z,2.17
2023-03-06T15:28:40.256Z,4.28
2023-03-06T15:30:42.665Z,3.03
2023-03-06T15:32:44.819Z,1.42
2023-03-06T15:34:47.045Z,4.32
2023-03-06T15:36:54.238Z,4.75
2023-03-06T15:38:58.548Z,3.50
2023-03-06T15:41:02.455Z,1.67
2023-03-06T15:43:10.644Z,2.35
2023-03-06T15:45:19.180Z,3.72
2023-03-06T15:47:22.111Z,3.00
2023-03-06T15:49:24.379Z,6.82
2023-03-06T15:51:26.542Z,4.95
2023-03-06T15:53:28.848Z,6.97
2023-03-06T15:55:32.724Z,8.10
2023-03-06T15:57:34.906Z,1.98
2023-03-06T15:59:44.422Z,4.13
2023-03-06T16:01:46.734Z,7.32
2023-03-06T16:03:49.165Z,1.98
2023-03-06T16:05:51.410Z,4.07
2023-03-06T16:07:54.294Z,3.35
2023-03-06T16:09:56.532Z,7.25
2023-03-06T16:11:59.876Z,5.68
2023-03-06T16:14:02.274Z,5.97
2023-03-06T16:16:04.784Z,6.50
2023-03-06T16:18:07.729Z,10.75
2023-03-06T16:20:15.808Z,6.75
2023-03-06T16:22:17.959Z,6.50
2023-03-06T16:24:20.109Z,8.43
2023-03-06T16:26:30.161Z,1.67
2023-03-06T16:28:33.110Z,3.33
2023-03-06T16:30:36.033Z,1.90
2023-03-06T16:32:39.532Z,5.75
2023-03-06T16:34:42.671Z,1.77
2023-03-06T16:36:45.003Z,1.75
2023-03-06T16:38:48.344Z,3.78
2023-03-06T16:40:50.601Z,3.45
2023-03-06T16:42:54.819Z,4.85
2023-03-06T16:44:57.387Z,4.15
2023-03-06T16:47:01.129Z,2.20
2023-03-06T16:49:03.370Z,3.83
2023-03-06T16:51:07.434Z,2.70
2023-03-06T16:53:09.771Z,3.72
2023-03-06T16:55:11.912Z,3.15
2023-03-06T16:57:15.426Z,2.63
2023-03-06T16:59:17.770Z,5.65
2023-03-06T17:01:20.442Z,2.80
2023-03-06T17:03:22.771Z,2.45
2023-03-06T17:05:25.362Z,4.75
2023-03-06T17:07:27.664Z,7.25
2023-03-06T17:09:29.859Z,5.10
2023-03-06T17:11:32.471Z,9.50
2023-03-06T17:13:34.853Z,4.70
2023-03-06T17:15:37.662Z,3.88
2023-03-06T17:17:39.887Z,5.40
2023-03-06T17:19:46.890Z,2.92
2023-03-06T17:21:49.561Z,2.08
2023-03-06T17:23:52.315Z,5.13
2023-03-06T17:26:03.428Z,2.97
2023-03-06T17:28:05.956Z,4.60
2023-03-06T17:30:10.502Z,3.95
2023-03-06T17:32:13.378Z,4.57
2023-03-06T17:34:16.513Z,3.33
2023-03-06T17:36:19.742Z,3.28
2023-03-06T17:38:22.416Z,3.33
2023-03-06T17:40:24.663Z,4.47
2023-03-06T17:42:27.130Z,4.88
2023-03-06T17:44:30.936Z,3.67
2023-03-06T17:46:35.355Z,4.47
2023-03-06T17:48:38.087Z,4.30
2023-03-06T17:50:40.553Z,5.05
2023-03-06T17:52:42.939Z,10.13
2023-03-06T17:54:45.157Z,3.58
2023-03-06T17:56:47.906Z,4.60
2023-03-06T17:58:50.418Z,6.97
2023-03-06T18:00:53.168Z,4.63
2023-03-06T18:02:55.407Z,3.63
2023-03-06T18:04:58.490Z,6.72
2023-03-06T18:07:00.815Z,4.40
2023-03-06T18:09:04.068Z,2.95
2023-03-06T18:11:08.601Z,2.08
2023-03-06T18:13:11.543Z,1.90
2023-03-06T18:15:13.935Z,1.17
2023-03-06T18:17:17.006Z,2.67
2023-03-06T18:19:19.819Z,2.50
2023-03-06T18:21:24.782Z,1.15
2023-03-06T18:23:27.049Z,4.75
2023-03-06T18:25:31.948Z,1.75
2023-03-06T18:27:35.028Z,3.85
2023-03-06T18:29:37.123Z,2.72
2023-03-06T18:31:41.949Z,3.38
2023-03-06T18:33:44.893Z,3.63
2023-03-06T18:35:47.360Z,3.90
2023-03-06T18:37:51.781Z,4.30
2023-03-06T18:39:54.515Z,3.35
2023-03-06T18:41:56.883Z,3.08
2023-03-06T18:44:01.368Z,6.90
2023-03-06T18:46:04.037Z,5.18
2023-03-06T18:48:06.770Z,2.55
2023-03-06T18:50:11.385Z,4.28
2023-03-06T18:52:13.659Z,3.78
2023-03-06T18:54:16.125Z,1.67
2023-03-06T18:56:21.433Z,1.50
2023-03-06T18:58:23.892Z,1.50
2023-03-06T19:00:26.789Z,5.10
2023-03-06T19:02:29.409Z,3.10
2023-03-06T19:04:31.707Z,1.50
2023-03-06T19:06:34.674Z,4.90
2023-03-06T19:08:38.925Z,6.78
2023-03-06T19:10:44.006Z,4.20
2023-03-06T19:12:46.883Z,2.65
2023-03-06T19:14:50.407Z,3.35
2023-03-06T19:16:54.305Z,2.53
2023-03-06T19:18:59.086Z,6.72
2023-03-06T19:21:08.528Z,4.93
2023-03-06T19:23:11.632Z,5.05
2023-03-06T19:25:14.149Z,6.47
2023-03-06T19:27:16.588Z,4.57
2023-03-06T19:29:18.778Z,5.03
2023-03-06T19:31:25.304Z,6.05
2023-03-06T19:33:27.540Z,5.65
2023-03-06T19:35:29.773Z,4.13
2023-03-06T19:37:32.364Z,2.97
2023-03-06T19:39:34.598Z,5.45
2023-03-06T19:41:36.898Z,3.70
2023-03-06T19:43:39.480Z,7.03
2023-03-06T19:45:44.303Z,5.13
2023-03-06T19:47:46.617Z,8.05
2023-03-06T19:49:49.020Z,3.90
2023-03-06T19:51:51.753Z,3.55
2023-03-06T19:53:54.422Z,6.18
2023-03-06T19:56:03.888Z,4.57
2023-03-06T19:58:06.517Z,7.80
2023-03-06T20:00:10.532Z,4.53
2023-03-06T20:02:13.244Z,6.53
2023-03-06T20:04:17.139Z,4.32
2023-03-06T20:06:20.416Z,3.35
2023-03-06T20:08:22.484Z,5.80
2023-03-06T20:10:24.751Z,7.88
2023-03-06T20:12:27.338Z,4.50
2023-03-06T20:14:29.551Z,5.00
2023-03-06T20:16:32.776Z,5.97
2023-03-06T20:18:35.106Z,5.53
2023-03-06T20:20:39.400Z,6.00
2023-03-06T20:22:41.632Z,8.48
2023-03-06T20:24:43.897Z,6.65
2023-03-06T20:26:47.539Z,15.27
2023-03-06T20:28:49.600Z,7.25
2023-03-06T20:30:51.903Z,6.65
2023-03-06T20:32:55.077Z,5.22
2023-03-06T20:34:57.240Z,7.88
2023-03-06T20:36:59.619Z,10.32
2023-03-06T20:39:06.124Z,10.30
2023-03-06T20:41:14.748Z,8.23
2023-03-06T20:43:16.850Z,9.80
2023-03-06T20:45:18.938Z,8.82
2023-03-06T20:47:21.300Z,10.25
2023-03-06T20:49:25.548Z,10.93
2023-03-06T20:51:31.943Z,11.05
2023-03-06T20:53:35.398Z,6.70
2023-03-06T20:55:39.912Z,9.80
2023-03-06T20:57:42.087Z,7.22
2023-03-06T20:59:45.495Z,9.57
2023-03-06T21:01:48.240Z,7.80
2023-03-06T21:03:51.312Z,9.68
2023-03-06T21:05:53.458Z,9.02
2023-03-06T21:07:55.575Z,8.07
2023-03-06T21:09:57.950Z,9.20
2023-03-06T21:12:00.327Z,9.80
2023-03-06T21:14:03.417Z,8.35
2023-03-06T21:16:11.125Z,7.38
2023-03-06T21:18:13.392Z,7.57
2023-03-06T21:20:15.649Z,6.72
2023-03-06T21:22:18.084Z,7.57
2023-03-06T21:24:21.325Z,6.90
2023-03-06T21:26:26.754Z,5.20
2023-03-06T21:28:28.876Z,9.05
2023-03-06T21:30:31.217Z,6.80
2023-03-06T21:32:33.594Z,6.28
2023-03-06T21:34:36.041Z,7.10
2023-03-06T21:36:38.217Z,8.00
2023-03-06T21:38:40.787Z,7.22
2023-03-06T21:40:43.040Z,4.38
2023-03-06T21:42:45.167Z,7.78
2023-03-06T21:44:47.327Z,11.20
2023-03-06T21:46:49.496Z,5.22
2023-03-06T21:48:51.991Z,5.93
2023-03-06T21:51:06.357Z,6.65
2023-03-06T21:53:09.049Z,6.93
2023-03-06T21:55:11.832Z,7.93
2023-03-06T21:57:14.106Z,4.43
2023-03-06T21:59:16.209Z,7.63
2023-03-06T22:01:22.161Z,6.15
2023-03-06T22:03:24.543Z,5.10
2023-03-06T22:05:26.827Z,11.27
2023-03-06T22:07:29.399Z,7.57
2023-03-06T22:09:31.633Z,10.20
2023-03-06T22:11:37.414Z,7.45
2023-03-06T22:13:40.157Z,6.68
2023-03-06T22:15:51.019Z,9.50
2023-03-06T22:19:56.172Z,9.93
2023-03-06T22:21:58.353Z,8.23
2023-03-06T22:24:00.746Z,10.57
2023-03-06T22:26:05.570Z,6.95
2023-03-06T22:28:07.973Z,8.50
2023-03-06T22:30:11.038Z,8.23
2023-03-06T22:32:13.426Z,6.50
2023-03-06T22:34:15.813Z,5.13
2023-03-06T22:36:17.991Z,6.65
2023-03-06T22:38:20.099Z,7.32
2023-03-06T22:40:22.261Z,9.60
2023-03-06T22:42:24.422Z,7.70
2023-03-06T22:44:27.368Z,10.23
2023-03-06T22:46:30.307Z,6.30
2023-03-06T22:48:33.150Z,6.95
2023-03-06T22:50:35.286Z,5.05
2023-03-06T22:52:37.451Z,8.73
2023-03-06T22:54:39.552Z,5.28
2023-03-06T22:56:42.243Z,5.80
2023-03-06T22:58:45.200Z,7.18
2023-03-06T23:00:47.525Z,8.40
2023-03-06T23:02:49.657Z,6.47
2023-03-06T23:04:52.958Z,8.10
2023-03-06T23:06:55.309Z,6.30
2023-03-06T23:09:01.587Z,4.35
2023-03-06T23:11:09.096Z,6.85
2023-03-06T23:13:11.257Z,4.03
2023-03-06T23:15:13.428Z,6.05
2023-03-06T23:17:15.967Z,6.35
2023-03-06T23:19:18.167Z,5.28
2023-03-06T23:21:21.970Z,2.78
2023-03-06T23:23:24.047Z,3.53
2023-03-06T23:25:26.219Z,5.38
2023-03-06T23:27:29.558Z,5.60
2023-03-06T23:29:31.947Z,4.00
2023-03-06T23:31:34.219Z,7.43
2023-03-06T23:33:37.257Z,6.75
2023-03-06T23:35:40.153Z,3.38
2023-03-06T23:37:42.316Z,6.38
2023-03-06T23:39:44.546Z,3.45
2023-03-06T23:41:46.716Z,3.83
2023-03-06T23:43:49.851Z,5.43
2023-03-06T23:45:53.849Z,4.47
2023-03-06T23:47:56.707Z,5.00
2023-03-06T23:49:59.010Z,3.90
2023-03-06T23:52:01.058Z,5.55
2023-03-06T23:54:03.313Z,9.38
2023-03-06T23:56:07.344Z,6.53
2023-03-06T23:58:09.542Z,5.68
